createdAt,value
2017-06-04T00:00:36.820Z,989.21
2017-06-04T00:01:36.848Z,989.22
2017-06-04T00:02:36.885Z,989.21
2017-06-04T00:03:36.911Z,989.18
2017-06-04T00:04:36.940Z,989.18
2017-06-04T00:05:36.972Z,989.16
2017-06-04T00:06:37.000Z,989.16
2017-06-04T00:07:37.026Z,989.15
2017-06-04T00:08:37.057Z,989.15
2017-06-04T00:09:37.086Z,989.12
2017-06-04T00:10:37.117Z,989.15
2017-06-04T00:11:37.152Z,989.18
2017-06-04T00:12:37.181Z,989.17
2017-06-04T00:13:37.209Z,989.23
2017-06-04T00:14:37.242Z,989.19
2017-06-04T00:15:37.268Z,989.18
2017-06-04T00:16:37.301Z,989.19
2017-06-04T00:17:37.329Z,989.18
2017-06-04T00:18:37.360Z,989.15
2017-06-04T00:19:37.387Z,989.16
2017-06-04T00:20:37.422Z,989.18
2017-06-04T00:21:37.450Z,989.17
2017-06-04T00:22:37.477Z,989.2
2017-06-04T00:23:37.511Z,989.15
2017-06-04T00:24:37.540Z,989.14
2017-06-04T00:25:37.568Z,989.15
2017-06-04T00:26:37.599Z,989.13
2017-06-04T00:27:37.629Z,989.15
2017-06-04T00:28:37.659Z,989.14
2017-06-04T00:29:37.687Z,989.14
2017-06-04T00:30:37.716Z,989.17
2017-06-04T00:31:37.750Z,989.16
2017-06-04T00:32:37.778Z,989.19
2017-06-04T00:33:37.806Z,989.2
2017-06-04T00:34:37.840Z,989.18
2017-06-04T00:35:37.867Z,989.16
2017-06-04T00:36:37.896Z,989.18
2017-06-04T00:37:37.927Z,989.16
2017-06-04T00:38:37.959Z,989.16
2017-06-04T00:39:37.988Z,989.18
2017-06-04T00:40:38.019Z,989.18
2017-06-04T00:41:38.045Z,989.17
2017-06-04T00:42:38.078Z,989.17
2017-06-04T00:43:38.108Z,989.2
2017-06-04T00:44:38.137Z,989.21
2017-06-04T00:45:38.168Z,989.2
2017-06-04T00:46:38.197Z,989.21
2017-06-04T00:47:38.225Z,989.17
2017-06-04T00:48:38.256Z,989.19
2017-06-04T00:49:38.288Z,989.19
2017-06-04T00:50:38.316Z,989.19
2017-06-04T00:51:38.340Z,989.19
2017-06-04T00:52:38.402Z,989.19
2017-06-04T00:53:38.404Z,989.17
2017-06-04T00:54:38.435Z,989.2
2017-06-04T00:55:38.465Z,989.22
2017-06-04T00:56:38.495Z,989.21
2017-06-04T00:57:38.522Z,989.2
2017-06-04T00:58:38.554Z,989.23
2017-06-04T00:59:38.584Z,989.2
2017-06-04T01:00:38.612Z,989.23
2017-06-04T01:01:38.645Z,989.22
2017-06-04T01:02:38.674Z,989.22
2017-06-04T01:03:38.703Z,989.25
2017-06-04T01:04:38.731Z,989.28
2017-06-04T01:05:38.765Z,989.25
2017-06-04T01:06:38.794Z,989.28
2017-06-04T01:07:39.074Z,989.3
2017-06-04T01:08:38.851Z,989.26
2017-06-04T01:09:38.883Z,989.32
2017-06-04T01:10:38.914Z,989.37
2017-06-04T01:11:38.943Z,989.34
2017-06-04T01:12:39.223Z,989.42
2017-06-04T01:13:39.003Z,989.39
2017-06-04T01:14:39.033Z,989.41
2017-06-04T01:15:39.061Z,989.46
2017-06-04T01:16:39.089Z,989.44
2017-06-04T01:17:39.375Z,989.4
2017-06-04T01:18:39.150Z,989.44
2017-06-04T01:19:39.185Z,989.43
2017-06-04T01:20:39.208Z,989.42
2017-06-04T01:21:39.242Z,989.43
2017-06-04T01:22:39.470Z,989.43
2017-06-04T01:23:39.300Z,989.44
2017-06-04T01:24:39.333Z,989.41
2017-06-04T01:25:39.361Z,989.45
2017-06-04T01:26:39.387Z,989.46
2017-06-04T01:27:39.670Z,989.48
2017-06-04T01:28:39.452Z,989.42
2017-06-04T01:29:39.480Z,989.47
2017-06-04T01:30:39.509Z,989.42
2017-06-04T01:31:39.538Z,989.51
2017-06-04T01:32:39.822Z,989.52
2017-06-04T01:33:39.599Z,989.46
2017-06-04T01:34:39.639Z,989.53
2017-06-04T01:35:39.657Z,989.52
2017-06-04T01:36:39.690Z,989.49
2017-06-04T01:37:39.918Z,989.52
2017-06-04T01:38:39.749Z,989.56
2017-06-04T01:39:39.776Z,989.54
2017-06-04T01:40:39.809Z,989.58
2017-06-04T01:41:39.838Z,989.56
2017-06-04T01:42:40.116Z,989.53
2017-06-04T01:43:39.895Z,989.6
2017-06-04T01:44:39.949Z,989.61
2017-06-04T01:45:39.953Z,989.64
2017-06-04T01:46:39.986Z,989.62
2017-06-04T01:47:40.214Z,989.66
2017-06-04T01:48:40.044Z,989.7
2017-06-04T01:49:40.077Z,989.66
2017-06-04T01:50:40.106Z,989.71
2017-06-04T01:51:40.135Z,989.72
2017-06-04T01:52:40.417Z,989.75
2017-06-04T01:53:40.196Z,989.78
2017-06-04T01:54:40.224Z,989.77
2017-06-04T01:55:40.253Z,989.78
2017-06-04T01:56:40.283Z,989.74
2017-06-04T01:57:40.566Z,989.78
2017-06-04T01:58:40.344Z,989.81
2017-06-04T01:59:40.373Z,989.81
2017-06-04T02:00:40.402Z,989.86
2017-06-04T02:01:40.431Z,989.85
2017-06-04T02:02:40.714Z,989.84
2017-06-04T02:03:40.492Z,989.88
2017-06-04T02:04:40.522Z,989.9
2017-06-04T02:05:40.550Z,989.92
2017-06-04T02:06:40.579Z,989.95
2017-06-04T02:07:40.861Z,989.95
2017-06-04T02:08:40.640Z,989.96
2017-06-04T02:09:40.670Z,989.98
2017-06-04T02:10:40.695Z,990.01
2017-06-04T02:11:40.732Z,989.97
2017-06-04T02:12:40.959Z,990
2017-06-04T02:13:40.787Z,990
2017-06-04T02:14:40.818Z,990.08
2017-06-04T02:15:40.845Z,990.03
2017-06-04T02:16:40.878Z,990.08
2017-06-04T02:17:41.158Z,990.1
2017-06-04T02:18:40.936Z,990.15
2017-06-04T02:19:40.965Z,990.1
2017-06-04T02:20:41.002Z,990.13
2017-06-04T02:21:41.027Z,990.16
2017-06-04T02:22:41.307Z,990.18
2017-06-04T02:23:41.083Z,990.18
2017-06-04T02:24:41.113Z,990.18
2017-06-04T02:25:41.141Z,990.22
2017-06-04T02:26:41.171Z,990.22
2017-06-04T02:27:41.403Z,990.23
2017-06-04T02:28:41.231Z,990.29
2017-06-04T02:29:41.261Z,990.3
2017-06-04T02:30:41.294Z,990.29
2017-06-04T02:31:41.323Z,990.3
2017-06-04T02:32:41.603Z,990.35
2017-06-04T02:33:41.380Z,990.31
2017-06-04T02:34:41.408Z,990.34
2017-06-04T02:35:41.442Z,990.39
2017-06-04T02:36:41.470Z,990.43
2017-06-04T02:37:41.499Z,990.41
2017-06-04T02:38:41.528Z,990.43
2017-06-04T02:39:41.556Z,990.41
2017-06-04T02:40:41.586Z,990.46
2017-06-04T02:41:41.618Z,990.49
2017-06-04T02:42:41.647Z,990.45
2017-06-04T02:43:41.677Z,990.5
2017-06-04T02:44:41.706Z,990.51
2017-06-04T02:45:41.738Z,990.49
2017-06-04T02:46:41.767Z,990.54
2017-06-04T02:47:41.796Z,990.53
2017-06-04T02:48:41.822Z,990.61
2017-06-04T02:49:41.849Z,990.58
2017-06-04T02:50:41.882Z,990.61
2017-06-04T02:51:41.914Z,990.6
2017-06-04T02:52:41.944Z,990.64
2017-06-04T02:53:41.973Z,990.63
2017-06-04T02:54:42.001Z,990.63
2017-06-04T02:55:42.029Z,990.67
2017-06-04T02:56:42.063Z,990.68
2017-06-04T02:57:42.091Z,990.64
2017-06-04T02:58:42.115Z,990.65
2017-06-04T02:59:42.150Z,990.64
2017-06-04T03:00:42.181Z,990.64
2017-06-04T03:01:42.209Z,990.65
2017-06-04T03:02:42.246Z,990.68
2017-06-04T03:03:42.268Z,990.64
2017-06-04T03:04:42.297Z,990.68
2017-06-04T03:05:42.321Z,990.69
2017-06-04T03:06:42.358Z,990.67
2017-06-04T03:07:42.387Z,990.68
2017-06-04T03:08:42.417Z,990.7
2017-06-04T03:09:42.452Z,990.73
2017-06-04T03:10:42.474Z,990.71
2017-06-04T03:11:42.512Z,990.72
2017-06-04T03:12:42.532Z,990.72
2017-06-04T03:13:42.560Z,990.7
2017-06-04T03:14:42.611Z,990.72
2017-06-04T03:15:42.622Z,990.74
2017-06-04T03:16:42.648Z,990.73
2017-06-04T03:17:42.679Z,990.72
2017-06-04T03:18:42.712Z,990.72
2017-06-04T03:19:42.741Z,990.71
2017-06-04T03:20:42.769Z,990.75
2017-06-04T03:21:42.795Z,990.75
2017-06-04T03:22:42.827Z,990.78
2017-06-04T03:23:42.864Z,990.76
2017-06-04T03:24:42.890Z,990.77
2017-06-04T03:25:42.918Z,990.82
2017-06-04T03:26:42.947Z,990.84
2017-06-04T03:27:42.976Z,990.85
2017-06-04T03:28:43.005Z,990.86
2017-06-04T03:29:43.036Z,990.88
2017-06-04T03:30:43.061Z,990.86
2017-06-04T03:31:43.095Z,990.9
2017-06-04T03:32:43.124Z,990.88
2017-06-04T03:33:43.153Z,990.89
2017-06-04T03:34:43.182Z,990.9
2017-06-04T03:35:43.210Z,990.92
2017-06-04T03:36:43.243Z,990.92
2017-06-04T03:37:43.272Z,990.92
2017-06-04T03:38:43.301Z,990.91
2017-06-04T03:39:43.329Z,990.92
2017-06-04T03:40:43.359Z,990.94
2017-06-04T03:41:43.388Z,990.93
2017-06-04T03:42:43.416Z,990.95
2017-06-04T03:43:43.447Z,990.97
2017-06-04T03:44:43.473Z,990.95
2017-06-04T03:45:43.506Z,990.93
2017-06-04T03:46:43.536Z,990.97
2017-06-04T03:47:43.564Z,990.96
2017-06-04T03:48:43.595Z,990.98
2017-06-04T03:49:43.626Z,991
2017-06-04T03:50:43.654Z,991.02
2017-06-04T03:51:43.683Z,991.04
2017-06-04T03:52:43.711Z,991.04
2017-06-04T03:53:43.741Z,991.08
2017-06-04T03:54:43.770Z,991.09
2017-06-04T03:55:43.803Z,991.11
2017-06-04T03:56:43.830Z,991.09
2017-06-04T03:57:43.861Z,991.13
2017-06-04T03:58:43.884Z,991.1
2017-06-04T03:59:43.918Z,991.15
2017-06-04T04:00:43.947Z,991.17
2017-06-04T04:01:43.974Z,991.17
2017-06-04T04:02:44.008Z,991.12
2017-06-04T04:03:44.037Z,991.2
2017-06-04T04:04:44.066Z,991.24
2017-06-04T04:05:44.094Z,991.2
2017-06-04T04:06:44.124Z,991.24
2017-06-04T04:07:44.151Z,991.25
2017-06-04T04:08:44.181Z,991.24
2017-06-04T04:09:44.214Z,991.26
2017-06-04T04:10:44.243Z,991.25
2017-06-04T04:11:44.272Z,991.29
2017-06-04T04:12:44.296Z,991.31
2017-06-04T04:13:44.329Z,991.33
2017-06-04T04:14:44.358Z,991.34
2017-06-04T04:15:44.386Z,991.32
2017-06-04T04:16:44.419Z,991.32
2017-06-04T04:17:44.448Z,991.33
2017-06-04T04:18:44.476Z,991.32
2017-06-04T04:19:44.506Z,991.33
2017-06-04T04:20:44.534Z,991.32
2017-06-04T04:21:44.560Z,991.35
2017-06-04T04:22:44.592Z,991.39
2017-06-04T04:23:44.625Z,991.36
2017-06-04T04:24:44.654Z,991.36
2017-06-04T04:25:44.681Z,991.38
2017-06-04T04:26:44.712Z,991.38
2017-06-04T04:27:44.740Z,991.37
2017-06-04T04:28:45.020Z,991.42
2017-06-04T04:29:44.793Z,991.45
2017-06-04T04:30:44.829Z,991.42
2017-06-04T04:31:44.886Z,991.44
2017-06-04T04:32:44.884Z,991.4
2017-06-04T04:33:45.164Z,991.44
2017-06-04T04:34:44.945Z,991.39
2017-06-04T04:35:44.975Z,991.46
2017-06-04T04:36:45.007Z,991.53
2017-06-04T04:37:45.036Z,991.52
2017-06-04T04:38:45.265Z,991.54
2017-06-04T04:39:45.094Z,991.51
2017-06-04T04:40:45.123Z,991.58
2017-06-04T04:41:45.152Z,991.58
2017-06-04T04:42:45.180Z,991.59
2017-06-04T04:43:45.461Z,991.66
2017-06-04T04:44:45.238Z,991.67
2017-06-04T04:45:45.270Z,991.62
2017-06-04T04:46:45.299Z,991.64
2017-06-04T04:47:45.328Z,991.65
2017-06-04T04:48:45.608Z,991.67
2017-06-04T04:49:45.384Z,991.71
2017-06-04T04:50:45.419Z,991.7
2017-06-04T04:51:45.442Z,991.71
2017-06-04T04:52:45.476Z,991.68
2017-06-04T04:53:45.757Z,991.68
2017-06-04T04:54:45.530Z,991.67
2017-06-04T04:55:45.563Z,991.72
2017-06-04T04:56:45.588Z,991.7
2017-06-04T04:57:45.620Z,991.73
2017-06-04T04:58:45.851Z,991.76
2017-06-04T04:59:45.681Z,991.8
2017-06-04T05:00:45.710Z,991.82
2017-06-04T05:01:45.740Z,991.82
2017-06-04T05:02:45.768Z,991.82
2017-06-04T05:03:46.049Z,991.86
2017-06-04T05:04:45.826Z,991.89
2017-06-04T05:05:45.853Z,991.88
2017-06-04T05:06:45.879Z,991.88
2017-06-04T05:07:45.921Z,991.88
2017-06-04T05:08:46.195Z,991.93
2017-06-04T05:09:45.974Z,991.95
2017-06-04T05:10:46.003Z,991.94
2017-06-04T05:11:46.032Z,991.95
2017-06-04T05:12:46.060Z,991.99
2017-06-04T05:13:46.340Z,992
2017-06-04T05:14:46.119Z,992.01
2017-06-04T05:15:46.151Z,992
2017-06-04T05:16:46.183Z,992
2017-06-04T05:17:46.209Z,992.03
2017-06-04T05:18:46.488Z,992.02
2017-06-04T05:19:46.267Z,991.98
2017-06-04T05:20:46.291Z,992.05
2017-06-04T05:21:46.326Z,992.1
2017-06-04T05:22:46.353Z,992.1
2017-06-04T05:23:46.637Z,992.12
2017-06-04T05:24:46.415Z,992.13
2017-06-04T05:25:46.443Z,992.16
2017-06-04T05:26:46.467Z,992.2
2017-06-04T05:27:46.501Z,992.23
2017-06-04T05:28:46.530Z,992.24
2017-06-04T05:29:46.559Z,992.24
2017-06-04T05:30:46.587Z,992.31
2017-06-04T05:31:46.615Z,992.35
2017-06-04T05:32:46.650Z,992.37
2017-06-04T05:33:46.678Z,992.36
2017-06-04T05:34:46.706Z,992.4
2017-06-04T05:35:46.731Z,992.44
2017-06-04T05:36:46.765Z,992.49
2017-06-04T05:37:46.794Z,992.48
2017-06-04T05:38:46.822Z,992.51
2017-06-04T05:39:46.851Z,992.51
2017-06-04T05:40:46.876Z,992.55
2017-06-04T05:41:46.912Z,992.55
2017-06-04T05:42:46.940Z,992.55
2017-06-04T05:43:46.969Z,992.56
2017-06-04T05:44:46.998Z,992.6
2017-06-04T05:45:47.027Z,992.6
2017-06-04T05:46:47.056Z,992.62
2017-06-04T05:47:47.084Z,992.61
2017-06-04T05:48:47.113Z,992.62
2017-06-04T05:49:47.138Z,992.63
2017-06-04T05:50:47.175Z,992.64
2017-06-04T05:51:47.217Z,992.65
2017-06-04T05:52:47.233Z,992.64
2017-06-04T05:53:47.262Z,992.68
2017-06-04T05:54:47.291Z,992.68
2017-06-04T05:55:47.320Z,992.67
2017-06-04T05:56:47.349Z,992.7
2017-06-04T05:57:47.378Z,992.71
2017-06-04T05:58:47.405Z,992.76
2017-06-04T05:59:47.438Z,992.74
2017-06-04T06:00:47.463Z,992.76
2017-06-04T06:01:47.497Z,992.8
2017-06-04T06:02:47.524Z,992.8
2017-06-04T06:03:47.553Z,992.78
2017-06-04T06:04:47.581Z,992.84
2017-06-04T06:05:47.611Z,992.85
2017-06-04T06:06:47.638Z,992.85
2017-06-04T06:07:47.668Z,992.83
2017-06-04T06:08:47.702Z,992.87
2017-06-04T06:09:47.731Z,992.88
2017-06-04T06:10:47.760Z,992.91
2017-06-04T06:11:47.787Z,992.92
2017-06-04T06:12:47.816Z,992.93
2017-06-04T06:13:47.846Z,992.98
2017-06-04T06:14:47.875Z,993.04
2017-06-04T06:15:47.904Z,993.04
2017-06-04T06:16:47.930Z,993
2017-06-04T06:17:47.960Z,993.04
2017-06-04T06:18:47.988Z,993.06
2017-06-04T06:19:48.022Z,993.05
2017-06-04T06:20:48.051Z,993.04
2017-06-04T06:21:48.083Z,993.15
2017-06-04T06:22:48.109Z,993.15
2017-06-04T06:23:48.138Z,993.17
2017-06-04T06:24:48.166Z,993.21
2017-06-04T06:25:48.194Z,993.21
2017-06-04T06:26:48.225Z,993.24
2017-06-04T06:27:48.253Z,993.26
2017-06-04T06:28:48.281Z,993.22
2017-06-04T06:29:48.315Z,993.27
2017-06-04T06:30:48.338Z,993.24
2017-06-04T06:31:48.369Z,993.24
2017-06-04T06:32:48.398Z,993.24
2017-06-04T06:33:48.431Z,993.29
2017-06-04T06:34:48.458Z,993.28
2017-06-04T06:35:48.488Z,993.3
2017-06-04T06:36:48.515Z,993.32
2017-06-04T06:37:48.544Z,993.29
2017-06-04T06:38:48.574Z,993.3
2017-06-04T06:39:48.602Z,993.32
2017-06-04T06:40:48.633Z,993.33
2017-06-04T06:41:48.659Z,993.36
2017-06-04T06:42:48.688Z,993.38
2017-06-04T06:43:48.721Z,993.44
2017-06-04T06:44:48.750Z,993.53
2017-06-04T06:45:48.776Z,993.5
2017-06-04T06:46:48.808Z,993.47
2017-06-04T06:47:48.837Z,993.53
2017-06-04T06:48:48.865Z,993.48
2017-06-04T06:49:48.894Z,993.53
2017-06-04T06:50:48.923Z,993.52
2017-06-04T06:51:48.952Z,993.51
2017-06-04T06:52:48.981Z,993.55
2017-06-04T06:53:49.011Z,993.53
2017-06-04T06:54:49.037Z,993.56
2017-06-04T06:55:49.067Z,993.64
2017-06-04T06:56:49.101Z,993.62
2017-06-04T06:57:49.130Z,993.6
2017-06-04T06:58:49.158Z,993.62
2017-06-04T06:59:49.188Z,993.64
2017-06-04T07:00:49.216Z,993.72
2017-06-04T07:01:49.245Z,993.7
2017-06-04T07:02:49.272Z,993.73
2017-06-04T07:03:49.302Z,993.78
2017-06-04T07:04:49.331Z,993.81
2017-06-04T07:05:49.363Z,993.83
2017-06-04T07:06:49.389Z,993.86
2017-06-04T07:07:49.417Z,993.88
2017-06-04T07:08:49.442Z,993.89
2017-06-04T07:09:49.474Z,993.88
2017-06-04T07:10:49.498Z,993.92
2017-06-04T07:11:49.532Z,993.9
2017-06-04T07:12:49.567Z,993.92
2017-06-04T07:13:49.594Z,993.97
2017-06-04T07:14:49.623Z,993.95
2017-06-04T07:15:49.650Z,993.98
2017-06-04T07:16:49.674Z,993.98
2017-06-04T07:17:49.709Z,994.1
2017-06-04T07:18:49.738Z,994.01
2017-06-04T07:19:49.768Z,994.09
2017-06-04T07:20:49.795Z,994.12
2017-06-04T07:21:49.825Z,994.03
2017-06-04T07:22:49.852Z,994.1
2017-06-04T07:23:49.883Z,994.08
2017-06-04T07:24:49.912Z,994.1
2017-06-04T07:25:49.939Z,994.13
2017-06-04T07:26:49.969Z,994.14
2017-06-04T07:27:50.001Z,994.18
2017-06-04T07:28:50.023Z,994.19
2017-06-04T07:29:50.058Z,994.19
2017-06-04T07:30:50.088Z,994.21
2017-06-04T07:31:50.116Z,994.22
2017-06-04T07:32:50.151Z,994.22
2017-06-04T07:33:50.174Z,994.23
2017-06-04T07:34:50.203Z,994.27
2017-06-04T07:35:50.231Z,994.22
2017-06-04T07:36:50.260Z,994.27
2017-06-04T07:37:50.288Z,994.26
2017-06-04T07:38:50.314Z,994.29
2017-06-04T07:39:50.347Z,994.33
2017-06-04T07:40:50.376Z,994.32
2017-06-04T07:41:50.404Z,994.35
2017-06-04T07:42:50.433Z,994.32
2017-06-04T07:43:50.457Z,994.38
2017-06-04T07:44:50.492Z,994.34
2017-06-04T07:45:50.523Z,994.37
2017-06-04T07:46:50.548Z,994.37
2017-06-04T07:47:50.578Z,994.41
2017-06-04T07:48:50.610Z,994.42
2017-06-04T07:49:50.638Z,994.45
2017-06-04T07:50:50.667Z,994.44
2017-06-04T07:51:50.696Z,994.47
2017-06-04T07:52:50.726Z,994.47
2017-06-04T07:53:50.754Z,994.49
2017-06-04T07:54:51.034Z,994.48
2017-06-04T07:55:50.813Z,994.6
2017-06-04T07:56:50.841Z,994.6
2017-06-04T07:57:50.868Z,994.58
2017-06-04T07:58:50.899Z,994.64
2017-06-04T07:59:51.130Z,994.66
2017-06-04T08:00:50.956Z,994.7
2017-06-04T08:01:50.984Z,994.76
2017-06-04T08:02:51.013Z,994.76
2017-06-04T08:03:51.044Z,994.83
2017-06-04T08:04:51.271Z,994.84
2017-06-04T08:05:51.095Z,994.81
2017-06-04T08:06:51.128Z,994.91
2017-06-04T08:07:51.158Z,994.92
2017-06-04T08:08:51.187Z,994.93
2017-06-04T08:09:51.470Z,994.92
2017-06-04T08:10:51.244Z,994.94
2017-06-04T08:11:51.272Z,994.97
2017-06-04T08:12:51.302Z,994.95
2017-06-04T08:13:51.330Z,995
2017-06-04T08:14:51.559Z,995.04
2017-06-04T08:15:51.389Z,994.95
2017-06-04T08:16:51.418Z,995.01
2017-06-04T08:17:51.446Z,995.03
2017-06-04T08:18:51.475Z,995.05
2017-06-04T08:19:51.702Z,995.07
2017-06-04T08:20:51.532Z,995.08
2017-06-04T08:21:51.562Z,995.13
2017-06-04T08:22:51.589Z,995.13
2017-06-04T08:23:51.619Z,995.15
2017-06-04T08:24:51.647Z,995.17
2017-06-04T08:25:51.676Z,995.2
2017-06-04T08:26:51.705Z,995.23
2017-06-04T08:27:51.734Z,995.21
2017-06-04T08:28:51.763Z,995.21
2017-06-04T08:29:51.790Z,995.27
2017-06-04T08:30:51.842Z,995.26
2017-06-04T08:31:51.848Z,995.31
2017-06-04T08:32:51.873Z,995.27
2017-06-04T08:33:51.906Z,995.29
2017-06-04T08:34:51.935Z,995.31
2017-06-04T08:35:51.964Z,995.3
2017-06-04T08:36:51.988Z,995.35
2017-06-04T08:37:52.022Z,995.33
2017-06-04T08:38:52.051Z,995.35
2017-06-04T08:39:52.130Z,995.37
2017-06-04T08:40:52.108Z,995.4
2017-06-04T08:41:52.138Z,995.43
2017-06-04T08:42:52.164Z,995.47
2017-06-04T08:43:52.195Z,995.41
2017-06-04T08:44:52.225Z,995.43
2017-06-04T08:45:52.258Z,995.46
2017-06-04T08:46:52.281Z,995.48
2017-06-04T08:47:52.313Z,995.49
2017-06-04T08:48:52.338Z,995.49
2017-06-04T08:49:52.368Z,995.47
2017-06-04T08:50:52.409Z,995.43
2017-06-04T08:51:52.427Z,995.43
2017-06-04T08:52:52.449Z,995.44
2017-06-04T08:53:52.477Z,995.44
2017-06-04T08:54:52.512Z,995.48
2017-06-04T08:55:52.540Z,995.5
2017-06-04T08:56:52.569Z,995.49
2017-06-04T08:57:52.598Z,995.47
2017-06-04T08:58:52.625Z,995.47
2017-06-04T08:59:52.655Z,995.46
2017-06-04T09:00:52.685Z,995.47
2017-06-04T09:01:52.713Z,995.5
2017-06-04T09:02:52.737Z,995.45
2017-06-04T09:03:52.765Z,995.47
2017-06-04T09:04:52.798Z,995.48
2017-06-04T09:05:52.828Z,995.46
2017-06-04T09:06:52.857Z,995.5
2017-06-04T09:07:52.882Z,995.47
2017-06-04T09:08:52.915Z,995.51
2017-06-04T09:09:52.944Z,995.48
2017-06-04T09:10:52.972Z,995.5
2017-06-04T09:11:52.996Z,995.49
2017-06-04T09:12:53.029Z,995.53
2017-06-04T09:13:53.060Z,995.5
2017-06-04T09:14:53.087Z,995.5
2017-06-04T09:15:53.114Z,995.52
2017-06-04T09:16:53.140Z,995.55
2017-06-04T09:17:53.173Z,995.56
2017-06-04T09:18:53.202Z,995.62
2017-06-04T09:19:53.232Z,995.63
2017-06-04T09:20:53.264Z,995.63
2017-06-04T09:21:53.284Z,995.66
2017-06-04T09:22:53.318Z,995.65
2017-06-04T09:23:53.347Z,995.63
2017-06-04T09:24:53.374Z,995.67
2017-06-04T09:25:53.404Z,995.58
2017-06-04T09:26:53.432Z,995.56
2017-06-04T09:27:53.465Z,995.59
2017-06-04T09:28:53.490Z,995.6
2017-06-04T09:29:53.524Z,995.62
2017-06-04T09:30:53.548Z,995.65
2017-06-04T09:31:53.580Z,995.65
2017-06-04T09:32:53.610Z,995.72
2017-06-04T09:33:53.634Z,995.69
2017-06-04T09:34:53.664Z,995.66
2017-06-04T09:35:53.695Z,995.66
2017-06-04T09:36:53.724Z,995.65
2017-06-04T09:37:53.753Z,995.68
2017-06-04T09:38:53.782Z,995.63
2017-06-04T09:39:53.819Z,995.7
2017-06-04T09:40:53.842Z,995.64
2017-06-04T09:41:53.870Z,995.61
2017-06-04T09:42:53.899Z,995.64
2017-06-04T09:43:53.926Z,995.66
2017-06-04T09:44:53.952Z,995.67
2017-06-04T09:45:54.183Z,995.73
2017-06-04T09:46:54.014Z,995.76
2017-06-04T09:47:54.041Z,995.77
2017-06-04T09:48:54.069Z,995.79
2017-06-04T09:49:54.096Z,995.81
2017-06-04T09:50:54.330Z,995.81
2017-06-04T09:51:54.158Z,995.81
2017-06-04T09:52:54.186Z,995.86
2017-06-04T09:53:54.215Z,995.87
2017-06-04T09:54:54.245Z,995.86
2017-06-04T09:55:54.471Z,995.89
2017-06-04T09:56:54.306Z,995.93
2017-06-04T09:57:54.328Z,995.9
2017-06-04T09:58:54.354Z,995.87
2017-06-04T09:59:54.394Z,995.9
2017-06-04T10:00:54.617Z,995.91
2017-06-04T10:01:54.446Z,995.88
2017-06-04T10:02:54.478Z,995.88
2017-06-04T10:03:54.503Z,995.89
2017-06-04T10:04:54.536Z,995.95
2017-06-04T10:05:54.817Z,995.86
2017-06-04T10:06:54.593Z,995.89
2017-06-04T10:07:54.622Z,995.89
2017-06-04T10:08:54.651Z,995.9
2017-06-04T10:09:54.684Z,995.92
2017-06-04T10:10:54.710Z,995.89
2017-06-04T10:11:54.737Z,995.82
2017-06-04T10:12:54.767Z,995.94
2017-06-04T10:13:54.795Z,995.92
2017-06-04T10:14:54.825Z,995.96
2017-06-04T10:15:54.857Z,995.98
2017-06-04T10:16:54.882Z,996.01
2017-06-04T10:17:54.907Z,996
2017-06-04T10:18:54.944Z,995.97
2017-06-04T10:19:54.969Z,996.02
2017-06-04T10:20:54.997Z,996.03
2017-06-04T10:21:55.030Z,996.03
2017-06-04T10:22:55.058Z,996.06
2017-06-04T10:23:55.086Z,996.02
2017-06-04T10:24:55.117Z,996.06
2017-06-04T10:25:55.146Z,996.03
2017-06-04T10:26:55.174Z,996.07
2017-06-04T10:27:55.206Z,996.05
2017-06-04T10:28:55.231Z,996.08
2017-06-04T10:29:55.256Z,996.04
2017-06-04T10:30:55.289Z,996.06
2017-06-04T10:31:55.318Z,996.08
2017-06-04T10:32:55.347Z,996.04
2017-06-04T10:33:55.376Z,996.03
2017-06-04T10:34:55.405Z,996.07
2017-06-04T10:35:55.432Z,996.04
2017-06-04T10:36:55.462Z,996.1
2017-06-04T10:37:55.494Z,996.03
2017-06-04T10:38:55.523Z,996.03
2017-06-04T10:39:55.554Z,996.02
2017-06-04T10:40:55.581Z,996.03
2017-06-04T10:41:55.610Z,996
2017-06-04T10:42:55.639Z,996.01
2017-06-04T10:43:55.664Z,996
2017-06-04T10:44:55.697Z,995.98
2017-06-04T10:45:55.726Z,995.95
2017-06-04T10:46:55.754Z,995.96
2017-06-04T10:47:55.783Z,995.92
2017-06-04T10:48:55.812Z,995.94
2017-06-04T10:49:55.841Z,995.9
2017-06-04T10:50:55.938Z,995.93
2017-06-04T10:51:55.903Z,995.92
2017-06-04T10:52:56.018Z,995.92
2017-06-04T10:53:55.992Z,995.89
2017-06-04T10:54:56.021Z,995.87
2017-06-04T10:55:56.104Z,995.87
2017-06-04T10:56:56.119Z,995.9
2017-06-04T10:57:56.121Z,995.89
2017-06-04T10:58:56.206Z,995.87
2017-06-04T10:59:56.252Z,995.87
2017-06-04T11:00:56.193Z,995.88
2017-06-04T11:01:56.194Z,995.89
2017-06-04T11:02:56.223Z,995.87
2017-06-04T11:03:56.253Z,995.88
2017-06-04T11:04:56.286Z,995.91
2017-06-04T11:05:56.309Z,995.9
2017-06-04T11:06:56.338Z,995.88
2017-06-04T11:07:56.367Z,995.87
2017-06-04T11:08:56.396Z,995.84
2017-06-04T11:09:56.426Z,995.84
2017-06-04T11:10:56.454Z,995.84
2017-06-04T11:11:56.483Z,995.81
2017-06-04T11:12:56.514Z,995.84
2017-06-04T11:13:56.540Z,995.84
2017-06-04T11:14:56.572Z,995.84
2017-06-04T11:15:56.602Z,995.83
2017-06-04T11:16:56.631Z,995.83
2017-06-04T11:17:56.659Z,995.86
2017-06-04T11:18:56.688Z,995.85
2017-06-04T11:19:56.717Z,995.84
2017-06-04T11:20:56.746Z,995.82
2017-06-04T11:21:56.775Z,995.81
2017-06-04T11:22:56.803Z,995.8
2017-06-04T11:23:56.840Z,995.84
2017-06-04T11:24:56.865Z,995.82
2017-06-04T11:25:56.894Z,995.78
2017-06-04T11:26:56.923Z,995.83
2017-06-04T11:27:56.948Z,995.83
2017-06-04T11:28:56.981Z,995.86
2017-06-04T11:29:57.010Z,995.86
2017-06-04T11:30:57.038Z,995.91
2017-06-04T11:31:57.066Z,995.88
2017-06-04T11:32:57.098Z,995.9
2017-06-04T11:33:57.135Z,995.92
2017-06-04T11:34:57.158Z,995.88
2017-06-04T11:35:57.191Z,995.91
2017-06-04T11:36:57.217Z,995.92
2017-06-04T11:37:57.245Z,995.92
2017-06-04T11:38:57.273Z,995.94
2017-06-04T11:39:57.302Z,995.9
2017-06-04T11:40:57.333Z,995.93
2017-06-04T11:41:57.359Z,995.89
2017-06-04T11:42:57.393Z,995.91
2017-06-04T11:43:57.420Z,995.88
2017-06-04T11:44:57.449Z,995.85
2017-06-04T11:45:57.478Z,995.9
2017-06-04T11:46:57.507Z,995.88
2017-06-04T11:47:57.535Z,995.87
2017-06-04T11:48:57.564Z,995.87
2017-06-04T11:49:57.597Z,995.87
2017-06-04T11:50:57.628Z,995.85
2017-06-04T11:51:57.655Z,995.82
2017-06-04T11:52:57.684Z,995.79
2017-06-04T11:53:57.713Z,995.78
2017-06-04T11:54:57.742Z,995.77
2017-06-04T11:55:57.771Z,995.78
2017-06-04T11:56:57.800Z,995.78
2017-06-04T11:57:57.832Z,995.75
2017-06-04T11:58:57.861Z,995.78
2017-06-04T11:59:57.889Z,995.73
2017-06-04T12:00:57.918Z,995.73
2017-06-04T12:01:57.952Z,995.75
2017-06-04T12:02:57.980Z,995.75
2017-06-04T12:03:58.025Z,995.73
2017-06-04T12:04:58.051Z,995.72
2017-06-04T12:05:58.068Z,995.69
2017-06-04T12:06:58.100Z,995.67
2017-06-04T12:07:58.128Z,995.81
2017-06-04T12:08:58.157Z,995.65
2017-06-04T12:09:58.186Z,995.63
2017-06-04T12:10:58.232Z,995.61
2017-06-04T12:11:58.248Z,995.63
2017-06-04T12:12:58.272Z,995.62
2017-06-04T12:13:58.306Z,995.64
2017-06-04T12:14:58.334Z,995.62
2017-06-04T12:15:58.367Z,995.68
2017-06-04T12:16:58.396Z,995.7
2017-06-04T12:17:58.423Z,995.71
2017-06-04T12:18:58.453Z,995.72
2017-06-04T12:19:58.486Z,995.72
2017-06-04T12:20:58.516Z,995.7
2017-06-04T12:21:58.544Z,995.71
2017-06-04T12:22:58.588Z,995.65
2017-06-04T12:23:58.606Z,995.67
2017-06-04T12:24:58.634Z,995.64
2017-06-04T12:25:58.667Z,995.68
2017-06-04T12:26:58.696Z,995.72
2017-06-04T12:27:58.725Z,995.7
2017-06-04T12:28:58.758Z,995.7
2017-06-04T12:29:58.787Z,995.7
2017-06-04T12:30:58.814Z,995.68
2017-06-04T12:31:58.844Z,995.67